createdAt,value
2023-05-15T00:00:47.544Z,59.69
2023-05-15T00:03:33.810Z,59.82
2023-05-15T00:06:06.245Z,59.86
2023-05-15T00:08:38.489Z,59.95
2023-05-15T00:11:10.823Z,59.08
2023-05-15T00:13:43.420Z,58.64
2023-05-15T00:16:15.857Z,58.50
2023-05-15T00:18:48.365Z,57.89
2023-05-15T00:21:20.816Z,58.03
2023-05-15T00:23:54.124Z,58.33
2023-05-15T00:26:26.646Z,57.63
2023-05-15T00:28:59.105Z,58.11
2023-05-15T00:31:31.525Z,58.36
2023-05-15T00:34:04.220Z,58.12
2023-05-15T00:36:36.510Z,58.29
2023-05-15T00:39:08.865Z,58.90
2023-05-15T00:41:43.143Z,58.69
2023-05-15T00:44:16.907Z,58.82
2023-05-15T00:46:50.251Z,58.68
2023-05-15T00:49:27.082Z,59.23
2023-05-15T00:52:02.049Z,60.11
2023-05-15T00:54:34.517Z,61.00
2023-05-15T00:57:09.672Z,61.93
2023-05-15T00:59:43.329Z,60.53
2023-05-15T01:02:17.073Z,59.81
2023-05-15T01:04:49.676Z,60.41
2023-05-15T01:07:21.914Z,60.08
2023-05-15T01:09:55.942Z,60.66
2023-05-15T01:12:31.472Z,61.48
2023-05-15T01:15:03.909Z,61.47
2023-05-15T01:17:36.773Z,61.08
2023-05-15T01:20:12.345Z,61.98
2023-05-15T01:23:07.309Z,61.99
2023-05-15T01:26:08.026Z,61.68
2023-05-15T01:28:47.250Z,61.90
2023-05-15T01:31:23.967Z,62.23
2023-05-15T01:34:03.593Z,62.08
2023-05-15T01:36:44.431Z,61.74
2023-05-15T01:39:23.148Z,62.26
2023-05-15T01:42:01.673Z,62.31
2023-05-15T01:44:37.404Z,62.17
2023-05-15T01:47:15.094Z,62.43
2023-05-15T01:49:50.421Z,62.33
2023-05-15T01:52:29.000Z,63.11
2023-05-15T01:55:03.295Z,63.18
2023-05-15T01:57:37.001Z,63.92
2023-05-15T02:00:11.859Z,63.99
2023-05-15T02:02:47.278Z,63.48
2023-05-15T02:05:21.023Z,63.29
2023-05-15T02:07:53.727Z,63.04
2023-05-15T02:10:27.334Z,62.76
2023-05-15T02:13:00.074Z,62.90
2023-05-15T02:15:33.279Z,62.88
2023-05-15T02:18:06.574Z,63.30
2023-05-15T02:20:38.980Z,63.18
2023-05-15T02:23:11.227Z,62.91
2023-05-15T02:25:51.280Z,63.46
2023-05-15T02:28:32.051Z,63.88
2023-05-15T02:31:12.918Z,64.04
2023-05-15T02:33:55.627Z,63.31
2023-05-15T02:36:34.731Z,63.12
2023-05-15T02:39:07.686Z,63.29
2023-05-15T02:41:41.200Z,63.82
2023-05-15T02:44:15.262Z,63.27
2023-05-15T02:46:48.340Z,63.57
2023-05-15T02:49:23.230Z,63.92
2023-05-15T02:51:56.541Z,64.10
2023-05-15T02:54:28.765Z,64.26
2023-05-15T02:57:01.112Z,64.32
2023-05-15T02:59:33.576Z,64.80
2023-05-15T03:02:06.235Z,64.80
2023-05-15T03:04:39.014Z,64.57
2023-05-15T03:07:11.480Z,65.11
2023-05-15T03:09:43.763Z,64.82
2023-05-15T03:12:16.460Z,64.77
2023-05-15T03:14:48.675Z,65.56
2023-05-15T03:17:21.669Z,65.20
2023-05-15T03:19:54.624Z,65.11
2023-05-15T03:22:26.950Z,65.40
2023-05-15T03:25:01.918Z,65.03
2023-05-15T03:27:34.308Z,64.66
2023-05-15T03:30:08.754Z,64.56
2023-05-15T03:32:41.156Z,64.44
2023-05-15T03:35:14.208Z,64.04
2023-05-15T03:37:46.400Z,64.42
2023-05-15T03:40:18.731Z,64.01
2023-05-15T03:42:53.397Z,64.22
2023-05-15T03:45:26.237Z,64.75
2023-05-15T03:47:58.862Z,65.02
2023-05-15T03:50:31.742Z,65.31
2023-05-15T03:53:05.164Z,66.07
2023-05-15T03:55:38.313Z,66.98
2023-05-15T03:58:11.137Z,67.36
2023-05-15T04:00:44.172Z,67.25
2023-05-15T04:03:16.468Z,67.41
2023-05-15T04:05:50.177Z,67.31
2023-05-15T04:08:22.732Z,67.98
2023-05-15T04:10:55.199Z,68.32
2023-05-15T04:13:27.922Z,68.35
2023-05-15T04:16:01.261Z,68.09
2023-05-15T04:18:33.612Z,68.42
2023-05-15T04:21:06.489Z,68.83
2023-05-15T04:23:39.912Z,69.06
2023-05-15T04:26:12.468Z,69.65
2023-05-15T04:28:56.153Z,69.28
2023-05-15T04:31:35.346Z,69.96
2023-05-15T04:34:08.035Z,70.30
2023-05-15T04:36:42.819Z,69.37
2023-05-15T04:39:15.809Z,69.51
2023-05-15T04:41:48.189Z,69.41
2023-05-15T04:44:21.195Z,70.06
2023-05-15T04:46:53.645Z,70.49
2023-05-15T04:49:26.389Z,70.47
2023-05-15T04:51:59.118Z,70.44
2023-05-15T04:54:31.262Z,69.63
2023-05-15T04:57:03.712Z,70.28
2023-05-15T04:59:36.060Z,71.27
2023-05-15T05:02:08.549Z,71.07
2023-05-15T05:04:43.660Z,71.82
2023-05-15T05:07:15.899Z,72.05
2023-05-15T05:09:48.456Z,71.78
2023-05-15T05:12:20.929Z,71.69
2023-05-15T05:14:53.174Z,71.82
2023-05-15T05:17:25.275Z,71.89
2023-05-15T05:19:57.630Z,71.68
2023-05-15T05:22:32.023Z,71.57
2023-05-15T05:25:04.348Z,71.78
2023-05-15T05:27:39.284Z,72.19
2023-05-15T05:30:13.312Z,71.90
2023-05-15T05:32:45.617Z,72.44
2023-05-15T05:35:18.141Z,73.04
2023-05-15T05:37:50.503Z,73.24
2023-05-15T05:40:22.847Z,73.24
2023-05-15T05:42:55.372Z,72.95
2023-05-15T05:45:27.625Z,73.02
2023-05-15T05:48:00.368Z,72.83
2023-05-15T05:50:33.031Z,73.13
2023-05-15T05:53:05.971Z,73.26
2023-05-15T05:55:38.432Z,73.40
2023-05-15T05:58:21.684Z,73.69
2023-05-15T06:00:57.453Z,73.72
2023-05-15T06:03:30.011Z,73.22
2023-05-15T06:06:02.935Z,73.69
2023-05-15T06:08:35.176Z,73.45
2023-05-15T06:11:07.526Z,73.51
2023-05-15T06:13:39.691Z,72.82
2023-05-15T06:16:12.093Z,73.24
2023-05-15T06:18:44.866Z,72.99
2023-05-15T06:21:17.132Z,72.83
2023-05-15T06:23:49.665Z,72.48
2023-05-15T06:26:22.085Z,72.96
2023-05-15T06:28:54.319Z,72.92
2023-05-15T06:31:26.620Z,72.73
2023-05-15T06:33:58.984Z,73.31
2023-05-15T06:36:31.255Z,73.27
2023-05-15T06:39:03.824Z,73.54
2023-05-15T06:41:36.069Z,73.42
2023-05-15T06:44:08.602Z,73.45
2023-05-15T06:46:40.965Z,73.83
2023-05-15T06:49:13.290Z,74.09
2023-05-15T06:51:45.865Z,73.78
2023-05-15T06:54:18.377Z,74.19
2023-05-15T06:56:51.412Z,73.94
2023-05-15T06:59:23.729Z,73.82
2023-05-15T07:01:56.199Z,74.17
2023-05-15T07:04:29.040Z,74.23
2023-05-15T07:07:01.317Z,73.66
2023-05-15T07:09:33.474Z,73.92
2023-05-15T07:12:06.107Z,73.66
2023-05-15T07:14:38.513Z,73.76
2023-05-15T07:17:11.129Z,73.80
2023-05-15T07:19:43.438Z,73.51
2023-05-15T07:22:16.119Z,73.85
2023-05-15T07:24:48.755Z,74.88
2023-05-15T07:27:21.117Z,74.95
2023-05-15T07:29:54.148Z,75.10
2023-05-15T07:32:26.326Z,75.04
2023-05-15T07:34:58.702Z,75.50
2023-05-15T07:37:30.997Z,75.65
2023-05-15T07:40:03.887Z,75.69
2023-05-15T07:42:35.919Z,76.15
2023-05-15T07:45:10.095Z,76.11
2023-05-15T07:47:45.920Z,75.93
2023-05-15T07:50:18.869Z,75.81
2023-05-15T07:52:51.387Z,75.77
2023-05-15T07:55:24.299Z,75.63
2023-05-15T07:57:56.634Z,75.93
2023-05-15T08:00:29.162Z,75.85
2023-05-15T08:03:01.822Z,76.11
2023-05-15T08:05:34.094Z,76.40
2023-05-15T08:08:06.843Z,76.28
2023-05-15T08:10:38.984Z,76.25
2023-05-15T08:13:11.269Z,75.83
2023-05-15T08:15:43.392Z,76.04
2023-05-15T08:18:15.781Z,76.30
2023-05-15T08:20:48.744Z,76.09
2023-05-15T08:23:21.137Z,76.38
2023-05-15T08:25:53.610Z,76.50
2023-05-15T08:28:25.991Z,76.64
2023-05-15T08:30:58.352Z,76.41
2023-05-15T08:33:30.522Z,75.89
2023-05-15T08:36:02.836Z,76.36
2023-05-15T08:38:34.985Z,76.86
2023-05-15T08:41:14.766Z,76.75
2023-05-15T08:43:47.507Z,77.61
2023-05-15T08:46:20.532Z,77.53
2023-05-15T08:48:54.684Z,77.55
2023-05-15T08:51:27.139Z,77.51
2023-05-15T08:53:59.695Z,77.33
2023-05-15T08:56:32.565Z,77.44
2023-05-15T08:59:05.437Z,78.25
2023-05-15T09:01:38.969Z,78.58
2023-05-15T09:04:11.199Z,78.72
2023-05-15T09:06:44.863Z,78.48
2023-05-15T09:09:17.541Z,77.83
2023-05-15T09:11:51.983Z,78.43
2023-05-15T09:14:24.300Z,78.77
2023-05-15T09:16:56.544Z,78.60
2023-05-15T09:19:29.570Z,78.48
2023-05-15T09:22:18.220Z,78.31
2023-05-15T09:24:53.068Z,78.85
2023-05-15T09:27:26.374Z,79.00
2023-05-15T09:30:09.023Z,78.49
2023-05-15T09:32:41.286Z,77.87
2023-05-15T09:35:32.148Z,78.46
2023-05-15T09:38:05.788Z,78.22
2023-05-15T09:40:37.940Z,77.80
2023-05-15T09:43:13.094Z,77.38
2023-05-15T09:45:48.512Z,77.20
2023-05-15T09:48:20.879Z,77.74
2023-05-15T09:50:53.291Z,77.00
2023-05-15T09:53:29.579Z,77.41
2023-05-15T09:56:02.422Z,78.10
2023-05-15T09:58:36.232Z,78.81
2023-05-15T10:01:13.517Z,78.41
2023-05-15T10:03:46.342Z,78.23
2023-05-15T10:06:21.876Z,78.90
2023-05-15T10:08:57.834Z,78.60
2023-05-15T10:11:30.703Z,78.51
2023-05-15T10:14:03.560Z,79.42
2023-05-15T10:16:37.230Z,79.34
2023-05-15T10:19:11.468Z,78.35
2023-05-15T10:21:45.226Z,78.78
2023-05-15T10:24:21.153Z,78.30
2023-05-15T10:26:56.177Z,78.37
2023-05-15T10:29:30.283Z,78.63
2023-05-15T10:32:04.557Z,78.46
2023-05-15T10:34:37.175Z,78.97
2023-05-15T10:37:10.791Z,78.97
2023-05-15T10:39:43.541Z,78.86
2023-05-15T10:42:16.845Z,78.81
2023-05-15T10:44:50.191Z,78.34
2023-05-15T10:47:22.790Z,78.62
2023-05-15T10:49:55.139Z,78.95
2023-05-15T10:52:27.927Z,78.95
2023-05-15T10:55:00.233Z,78.86
2023-05-15T10:57:33.165Z,78.50
2023-05-15T11:00:25.624Z,78.85
2023-05-15T11:02:58.912Z,78.88
2023-05-15T11:05:51.737Z,78.41
2023-05-15T11:08:29.903Z,78.23
2023-05-15T11:11:02.587Z,78.64
2023-05-15T11:14:01.729Z,78.96
2023-05-15T11:17:01.383Z,78.39
2023-05-15T11:19:38.687Z,77.79
2023-05-15T11:22:22.128Z,77.44
2023-05-15T11:24:56.603Z,77.59
2023-05-15T11:27:30.598Z,77.97
2023-05-15T11:30:14.996Z,78.25
2023-05-15T11:33:00.628Z,78.26
2023-05-15T11:35:36.378Z,78.91
2023-05-15T11:38:16.490Z,79.03
2023-05-15T11:40:52.895Z,79.16
2023-05-15T11:43:26.828Z,79.20
2023-05-15T11:46:06.713Z,79.59
2023-05-15T11:48:41.752Z,79.62
2023-05-15T11:51:20.051Z,79.21
2023-05-15T11:53:53.979Z,78.87
2023-05-15T11:56:28.638Z,79.05
2023-05-15T11:59:02.447Z,78.92
2023-05-15T12:01:45.594Z,78.30
2023-05-15T12:04:20.223Z,78.14
2023-05-15T12:06:52.794Z,78.57
2023-05-15T12:09:27.519Z,78.35
2023-05-15T12:11:58.620Z,77.80
2023-05-15T12:14:31.714Z,77.97
2023-05-15T12:17:04.488Z,78.18
2023-05-15T12:19:38.249Z,78.06
2023-05-15T12:22:10.629Z,78.58
2023-05-15T12:24:43.595Z,78.88
2023-05-15T12:27:16.394Z,78.92
2023-05-15T12:29:48.867Z,78.79
2023-05-15T12:32:21.872Z,78.48
2023-05-15T12:34:54.421Z,79.64
2023-05-15T12:37:26.942Z,79.42
2023-05-15T12:40:01.532Z,79.74
2023-05-15T12:42:38.854Z,80.35
2023-05-15T12:45:17.345Z,80.26
2023-05-15T12:47:51.623Z,80.35
2023-05-15T12:50:24.975Z,80.28
2023-05-15T12:52:59.581Z,81.24
2023-05-15T12:55:33.550Z,80.29
2023-05-15T12:58:08.669Z,79.91
2023-05-15T13:00:46.094Z,79.05
2023-05-15T13:03:21.254Z,79.21
2023-05-15T13:05:54.611Z,79.05
2023-05-15T13:08:27.141Z,79.21
2023-05-15T13:11:02.804Z,79.04
2023-05-15T13:13:48.848Z,79.22
2023-05-15T13:16:29.612Z,79.26
2023-05-15T13:19:02.134Z,79.31
2023-05-15T13:21:34.305Z,79.47
2023-05-15T13:24:09.938Z,79.13
2023-05-15T13:26:42.236Z,79.10
2023-05-15T13:29:14.270Z,78.14
2023-05-15T13:31:47.054Z,78.10
2023-05-15T13:34:19.693Z,78.52
2023-05-15T13:36:52.236Z,79.25
2023-05-15T13:39:24.501Z,78.35
2023-05-15T13:41:56.817Z,77.96
2023-05-15T13:44:29.008Z,77.80
2023-05-15T13:47:04.401Z,78.19
2023-05-15T13:49:36.480Z,77.90
2023-05-15T13:52:09.561Z,77.04
2023-05-15T13:54:41.809Z,77.29
2023-05-15T13:57:14.021Z,77.05
2023-05-15T13:59:46.043Z,76.53
2023-05-15T14:02:18.405Z,77.20
2023-05-15T14:04:51.129Z,76.96
2023-05-15T14:07:25.091Z,76.72
2023-05-15T14:09:57.427Z,77.22
2023-05-15T14:12:29.771Z,76.69
2023-05-15T14:15:03.761Z,76.37
2023-05-15T14:17:36.254Z,76.77
2023-05-15T14:20:11.514Z,77.60
2023-05-15T14:22:44.814Z,77.48
2023-05-15T14:25:16.958Z,77.21
2023-05-15T14:27:48.952Z,76.84
2023-05-15T14:30:23.054Z,76.97
2023-05-15T14:32:55.492Z,77.00
2023-05-15T14:35:27.788Z,76.79
2023-05-15T14:38:00.200Z,77.29
2023-05-15T14:40:32.552Z,78.11
2023-05-15T14:43:04.719Z,78.86
2023-05-15T14:45:37.241Z,79.61
2023-05-15T14:48:09.726Z,80.52
2023-05-15T14:50:42.873Z,80.75
2023-05-15T14:53:15.714Z,80.85
2023-05-15T14:55:47.927Z,80.32
2023-05-15T14:58:20.215Z,81.14
2023-05-15T15:00:52.632Z,81.42
2023-05-15T15:03:27.629Z,81.36
2023-05-15T15:06:00.950Z,81.65
2023-05-15T15:08:33.890Z,81.64
2023-05-15T15:11:07.854Z,81.71
2023-05-15T15:13:40.327Z,81.82
2023-05-15T15:16:12.673Z,81.65
2023-05-15T15:18:45.022Z,81.58
2023-05-15T15:21:17.443Z,81.79
2023-05-15T15:23:49.861Z,81.54
2023-05-15T15:26:22.752Z,81.89
2023-05-15T15:28:55.351Z,82.28
2023-05-15T15:31:27.862Z,82.67
2023-05-15T15:34:00.382Z,82.07
2023-05-15T15:36:32.729Z,82.13
2023-05-15T15:39:05.593Z,82.61
2023-05-15T15:41:40.349Z,82.32
2023-05-15T15:44:12.961Z,82.12
2023-05-15T15:46:45.419Z,82.73
2023-05-15T15:49:17.807Z,82.59
2023-05-15T15:51:50.267Z,82.60
2023-05-15T15:54:22.840Z,82.38
2023-05-15T15:56:55.574Z,81.93
2023-05-15T15:59:27.978Z,82.54
2023-05-15T16:02:00.329Z,82.09
2023-05-15T16:04:32.429Z,82.43
2023-05-15T16:07:05.186Z,82.61
2023-05-15T16:09:37.664Z,82.16
2023-05-15T16:12:10.150Z,82.68
2023-05-15T16:14:42.566Z,82.98
2023-05-15T16:17:14.800Z,81.96
2023-05-15T16:19:46.901Z,82.10
2023-05-15T16:22:23.022Z,81.97
2023-05-15T16:24:59.658Z,82.42
2023-05-15T16:27:32.279Z,82.04
2023-05-15T16:30:04.751Z,82.65
2023-05-15T16:32:37.101Z,82.50
2023-05-15T16:35:10.560Z,82.06
2023-05-15T16:37:42.968Z,82.45
2023-05-15T16:40:17.768Z,82.45
2023-05-15T16:42:49.904Z,82.53
2023-05-15T16:45:22.259Z,82.97
2023-05-15T16:47:54.489Z,82.34
2023-05-15T16:50:26.986Z,81.76
2023-05-15T16:52:59.694Z,81.88
2023-05-15T16:55:32.504Z,82.27
2023-05-15T16:58:04.819Z,82.38
2023-05-15T17:00:37.114Z,82.61
2023-05-15T17:03:09.844Z,81.75
2023-05-15T17:05:42.247Z,81.80
2023-05-15T17:08:14.585Z,81.55
2023-05-15T17:10:47.294Z,82.16
2023-05-15T17:13:19.500Z,81.63
2023-05-15T17:15:51.983Z,81.55
2023-05-15T17:18:24.326Z,81.79
2023-05-15T17:20:56.387Z,81.61
2023-05-15T17:23:28.814Z,81.56
2023-05-15T17:26:01.009Z,81.38
2023-05-15T17:28:33.406Z,81.26
2023-05-15T17:31:11.941Z,81.69
2023-05-15T17:33:44.193Z,81.48
2023-05-15T17:36:16.692Z,81.36
2023-05-15T17:38:48.734Z,81.49
2023-05-15T17:41:22.152Z,80.87
2023-05-15T17:43:54.579Z,81.56
2023-05-15T17:46:27.029Z,82.08
2023-05-15T17:48:59.425Z,81.57
2023-05-15T17:51:32.143Z,81.66
2023-05-15T17:54:04.416Z,81.36
2023-05-15T17:56:36.924Z,80.90
2023-05-15T17:59:09.125Z,80.92
2023-05-15T18:01:41.420Z,82.06
2023-05-15T18:04:13.857Z,81.41
2023-05-15T18:06:46.588Z,81.36
2023-05-15T18:09:23.155Z,81.25
2023-05-15T18:11:56.902Z,80.89
2023-05-15T18:14:29.319Z,81.49
2023-05-15T18:17:01.801Z,81.39
2023-05-15T18:19:34.817Z,79.81
2023-05-15T18:22:07.521Z,78.71
2023-05-15T18:24:40.048Z,78.28
2023-05-15T18:27:12.392Z,78.40
2023-05-15T18:29:45.641Z,78.64
2023-05-15T18:32:19.381Z,79.17
2023-05-15T18:34:51.702Z,79.12
2023-05-15T18:37:24.136Z,79.94
2023-05-15T18:39:58.762Z,80.22
2023-05-15T18:42:31.695Z,79.88
2023-05-15T18:45:04.309Z,79.85
2023-05-15T18:47:36.822Z,80.28
2023-05-15T18:50:10.729Z,80.16
2023-05-15T18:52:43.509Z,80.45
2023-05-15T18:55:15.921Z,80.44
2023-05-15T18:57:48.174Z,80.28
2023-05-15T19:00:36.524Z,80.20
2023-05-15T19:03:11.074Z,80.89
2023-05-15T19:05:43.512Z,80.88
2023-05-15T19:08:15.881Z,81.39
2023-05-15T19:10:51.623Z,81.14
2023-05-15T19:13:24.093Z,81.21
2023-05-15T19:15:56.624Z,80.96
2023-05-15T19:18:28.794Z,81.24
2023-05-15T19:21:01.917Z,80.85
2023-05-15T19:23:34.385Z,82.10
2023-05-15T19:26:06.686Z,82.37
2023-05-15T19:28:38.955Z,83.02
2023-05-15T19:31:20.497Z,83.24
2023-05-15T19:34:03.280Z,82.42
2023-05-15T19:36:35.711Z,83.59
2023-05-15T19:39:10.424Z,83.41
2023-05-15T19:41:43.782Z,82.71
2023-05-15T19:44:17.079Z,83.65
2023-05-15T19:46:49.598Z,83.56
2023-05-15T19:49:21.776Z,84.17
2023-05-15T19:51:54.144Z,83.69
2023-05-15T19:54:26.488Z,83.70
2023-05-15T19:57:02.669Z,83.91
2023-05-15T19:59:34.926Z,83.74
2023-05-15T20:02:10.670Z,82.24
2023-05-15T20:04:43.291Z,81.33
2023-05-15T20:07:15.568Z,82.20
2023-05-15T20:09:48.225Z,82.63
2023-05-15T20:12:20.597Z,82.93
2023-05-15T20:14:53.105Z,82.24
2023-05-15T20:17:25.731Z,82.27
2023-05-15T20:19:59.237Z,82.64
2023-05-15T20:22:31.539Z,82.48
2023-05-15T20:25:04.298Z,82.09
2023-05-15T20:27:36.948Z,81.44
2023-05-15T20:30:11.169Z,80.94
2023-05-15T20:32:43.683Z,80.67
2023-05-15T20:35:16.022Z,80.76
2023-05-15T20:37:48.715Z,80.86
2023-05-15T20:40:23.140Z,80.84
2023-05-15T20:42:57.046Z,80.98
2023-05-15T20:45:30.066Z,80.80
2023-05-15T20:48:02.490Z,81.09
2023-05-15T20:50:35.002Z,80.87
2023-05-15T20:53:07.540Z,80.79
2023-05-15T20:55:39.789Z,80.94
2023-05-15T20:58:12.119Z,80.54
2023-05-15T21:00:44.552Z,81.08
2023-05-15T21:03:16.887Z,80.74
2023-05-15T21:05:50.126Z,80.69
2023-05-15T21:08:22.380Z,80.92
2023-05-15T21:10:55.721Z,81.55
2023-05-15T21:13:30.519Z,81.34
2023-05-15T21:16:01.505Z,81.51
2023-05-15T21:18:33.638Z,80.93
2023-05-15T21:21:07.246Z,80.06
2023-05-15T21:23:39.535Z,79.82
2023-05-15T21:26:12.588Z,79.58
2023-05-15T21:28:44.730Z,79.54
2023-05-15T21:31:17.085Z,79.81
2023-05-15T21:33:49.270Z,79.36
2023-05-15T21:36:21.513Z,79.11
2023-05-15T21:38:53.756Z,79.62
2023-05-15T21:41:26.597Z,79.34
2023-05-15T21:43:58.874Z,79.54
2023-05-15T21:46:31.563Z,79.70
2023-05-15T21:49:04.010Z,79.97
2023-05-15T21:51:36.318Z,79.59
2023-05-15T21:54:08.349Z,79.65
2023-05-15T21:56:41.271Z,79.99
2023-05-15T21:59:14.521Z,80.33
2023-05-15T22:01:46.988Z,79.99
2023-05-15T22:04:19.284Z,79.64
2023-05-15T22:06:52.132Z,79.72
2023-05-15T22:09:24.149Z,79.29
2023-05-15T22:11:56.676Z,79.82
2023-05-15T22:14:28.874Z,80.01
2023-05-15T22:17:01.724Z,80.39
2023-05-15T22:19:34.265Z,80.64
2023-05-15T22:22:06.908Z,80.57
2023-05-15T22:24:39.559Z,80.47
2023-05-15T22:27:12.309Z,80.32
2023-05-15T22:29:44.741Z,80.31
2023-05-15T22:32:17.152Z,80.77
2023-05-15T22:35:08.324Z,80.76
2023-05-15T22:37:42.196Z,80.39
2023-05-15T22:40:16.247Z,80.47
2023-05-15T22:42:50.333Z,80.59
2023-05-15T22:45:22.952Z,81.44
2023-05-15T22:47:57.219Z,81.59
2023-05-15T22:50:29.717Z,81.15
2023-05-15T22:53:02.036Z,81.10
2023-05-15T22:55:34.200Z,81.91
2023-05-15T22:58:06.635Z,81.43
2023-05-15T23:00:39.144Z,81.44
2023-05-15T23:03:29.090Z,81.46
2023-05-15T23:06:01.345Z,81.96
2023-05-15T23:08:33.662Z,81.78
2023-05-15T23:11:06.099Z,81.56
2023-05-15T23:13:38.668Z,81.17
2023-05-15T23:16:11.072Z,81.53
2023-05-15T23:18:43.724Z,81.65
2023-05-15T23:21:16.142Z,81.40
2023-05-15T23:23:48.804Z,81.21
2023-05-15T23:26:22.144Z,81.92
2023-05-15T23:28:54.749Z,82.10
2023-05-15T23:31:28.141Z,82.91
2023-05-15T23:34:00.626Z,82.22
2023-05-15T23:36:32.759Z,81.37
2023-05-15T23:39:05.874Z,81.71
2023-05-15T23:41:38.458Z,81.45
2023-05-15T23:44:10.957Z,81.72
2023-05-15T23:46:43.520Z,81.86
2023-05-15T23:49:16.360Z,81.92
2023-05-15T23:51:48.493Z,81.00
2023-05-15T23:54:21.501Z,81.41
2023-05-15T23:56:53.705Z,81.67
2023-05-15T23:59:26.432Z,82.26
